Time;durP1;ratioP1;P1;durP2;ratioP2;P2;SDS_P1;SDS_P2;PMS_P1;PMS_P2;Temp;Humidity;BMP_temperature;BMP_pressure;BME280_temperature;BME280_humidity;BME280_pressure;Samples;Min_cycle;Max_cycle;Signal;HPM_P1;HPM_P2
2023/06/23 00:01:13;;;;;;;25.13;14.98;;;615.10;2432.00;;;;;;4888119;29;20080;-76
2023/06/23 00:03:40;;;;;;;21.77;14.65;;;615.10;2432.00;;;;;;4887379;29;20040;-72
2023/06/23 00:06:06;;;;;;;18.42;13.75;;;615.10;2432.00;;;;;;4891227;29;20040;-74
2023/06/23 00:08:35;;;;;;;17.23;13.52;;;615.10;2432.00;;;;;;4888409;29;20029;-72
2023/06/23 00:14:43;;;;;;;25.90;14.32;;;615.00;2432.00;;;;;;4828025;29;20062;-72
2023/06/23 00:17:09;;;;;;;18.65;13.55;;;614.80;2432.00;;;;;;4831191;29;20034;-71
2023/06/23 00:19:35;;;;;;;16.50;13.30;;;614.80;2432.00;;;;;;4813241;29;20038;-72
2023/06/23 00:22:02;;;;;;;20.45;12.95;;;614.80;2432.00;;;;;;4831469;29;20534;-72
2023/06/23 00:24:30;;;;;;;20.48;13.77;;;614.80;2432.00;;;;;;4832377;29;20034;-72
2023/06/23 00:26:56;;;;;;;27.10;14.40;;;614.90;2432.00;;;;;;4831709;29;20064;-72
2023/06/23 00:29:22;;;;;;;18.35;12.75;;;615.00;2432.00;;;;;;4835418;29;20034;-72
2023/06/23 00:31:49;;;;;;;18.45;12.80;;;614.90;2432.00;;;;;;4813633;29;20104;-72
2023/06/23 00:34:15;;;;;;;19.20;12.75;;;614.90;2432.00;;;;;;4831265;29;20041;-71
2023/06/23 00:36:41;;;;;;;19.42;13.30;;;614.80;2432.00;;;;;;4835567;29;20086;-74
2023/06/23 00:39:08;;;;;;;24.17;13.88;;;614.90;2432.00;;;;;;4829579;29;20120;-72
2023/06/23 00:41:34;;;;;;;19.30;14.07;;;614.80;2432.00;;;;;;4817262;29;20499;-72
2023/06/23 00:44:00;;;;;;;20.20;13.85;;;614.80;2432.00;;;;;;4828998;29;20439;-72
2023/06/23 00:46:27;;;;;;;24.20;14.63;;;614.80;2432.00;;;;;;4833327;29;20057;-72
2023/06/23 00:48:53;;;;;;;25.27;13.55;;;614.70;2432.00;;;;;;4825968;29;20062;-71
2023/06/23 00:51:22;;;;;;;25.58;14.32;;;614.70;2432.00;;;;;;4837453;29;20026;-71
2023/06/23 00:53:47;;;;;;;20.63;12.82;;;614.60;2432.00;;;;;;4831503;29;20037;-72
2023/06/23 00:56:21;;;;;;;20.27;13.73;;;614.60;2432.00;;;;;;4834190;29;20030;-71
2023/06/23 00:58:48;;;;;;;18.83;13.30;;;614.60;2432.00;;;;;;4843654;29;20120;-73
2023/06/23 01:01:14;;;;;;;22.35;14.43;;;614.50;2432.00;;;;;;4828902;29;20038;-71
2023/06/23 01:03:40;;;;;;;18.55;14.43;;;614.40;2432.00;;;;;;4845837;29;20046;-73
2023/06/23 01:06:19;;;;;;;24.83;15.57;;;589.70;2432.00;;;;;;4845893;29;20015;-72
2023/06/23 01:09:11;;;;;;;21.92;14.95;;;589.70;2432.00;;;;;;4829313;29;20214;-72
2023/06/23 01:11:43;;;;;;;23.30;15.63;;;589.60;2432.00;;;;;;4845587;29;20034;-74
2023/06/23 01:14:18;;;;;;;20.58;15.85;;;589.60;2432.00;;;;;;4845380;29;20050;-74
2023/06/23 01:17:00;;;;;;;24.58;17.20;;;589.60;2432.00;;;;;;4846009;29;20030;-75
2023/06/23 01:19:52;;;;;;;26.88;15.85;;;589.60;2432.00;;;;;;4834315;29;20032;-72
2023/06/23 01:22:36;;;;;;;24.25;15.60;;;589.70;2432.00;;;;;;4845682;29;20109;-72
2023/06/23 01:25:35;;;;;;;31.05;17.58;;;589.60;2432.00;;;;;;4834346;29;20064;-73
2023/06/23 01:28:31;;;;;;;24.33;15.80;;;589.60;2432.00;;;;;;4845424;29;20469;-73
2023/06/23 01:31:00;;;;;;;28.57;16.07;;;589.60;2432.00;;;;;;4828832;29;20476;-73
2023/06/23 01:33:37;;;;;;;27.40;16.40;;;589.70;2432.00;;;;;;4828763;29;20768;-73
2023/06/23 01:36:14;;;;;;;29.58;18.33;;;589.60;2432.00;;;;;;4845259;29;20101;-73
2023/06/23 01:38:46;;;;;;;33.25;18.73;;;589.60;2432.00;;;;;;4828715;29;20038;-73
2023/06/23 01:41:15;;;;;;;34.38;18.25;;;589.60;2432.00;;;;;;4817453;29;20082;-73
2023/06/23 01:43:46;;;;;;;26.20;18.15;;;589.60;2432.00;;;;;;4844755;29;20050;-73
2023/06/23 01:46:15;;;;;;;30.70;18.42;;;589.60;2432.00;;;;;;4845073;29;20121;-73
2023/06/23 01:48:45;;;;;;;35.47;19.80;;;589.50;2432.00;;;;;;4844894;29;20041;-73
2023/06/23 01:51:11;;;;;;;31.70;21.13;;;589.50;2432.00;;;;;;4845022;29;20035;-76
2023/06/23 01:53:38;;;;;;;32.92;20.20;;;589.50;2432.00;;;;;;4845135;29;20033;-79
2023/06/23 01:56:06;;;;;;;32.72;20.15;;;589.50;2432.00;;;;;;4845161;29;20514;-73
2023/06/23 01:58:38;;;;;;;31.05;19.55;;;589.60;2432.00;;;;;;4848401;29;20032;-73
2023/06/23 02:01:06;;;;;;;27.73;18.77;;;589.60;2432.00;;;;;;4853236;29;20026;-72
2023/06/23 02:03:33;;;;;;;31.30;20.00;;;589.70;2432.00;;;;;;4844769;29;20088;-77
2023/06/23 02:06:01;;;;;;;31.98;19.75;;;589.70;2432.00;;;;;;4845082;29;20030;-74
2023/06/23 02:08:28;;;;;;;36.05;20.35;;;589.60;2432.00;;;;;;4842309;29;20026;-76
2023/06/23 02:10:55;;;;;;;32.60;19.50;;;589.50;2432.00;;;;;;4844577;29;20022;-74
2023/06/23 02:13:23;;;;;;;39.00;18.75;;;589.50;2432.00;;;;;;4852048;29;20053;-76
2023/06/23 02:15:51;;;;;;;39.92;21.75;;;589.40;2432.00;;;;;;4863252;29;20081;-72
2023/06/23 02:18:18;;;;;;;34.00;21.15;;;589.50;2432.00;;;;;;4863253;29;20109;-73
2023/06/23 02:20:45;;;;;;;34.85;20.42;;;589.50;2432.00;;;;;;4846596;29;20033;-73
2023/06/23 02:23:13;;;;;;;32.13;22.42;;;589.50;2432.00;;;;;;4846178;29;20125;-73
2023/06/23 02:25:41;;;;;;;34.90;21.33;;;589.40;2432.00;;;;;;4862918;29;20021;-72
2023/06/23 02:28:12;;;;;;;35.03;20.67;;;589.40;2432.00;;;;;;4862809;29;20028;-72
2023/06/23 02:30:43;;;;;;;39.35;20.85;;;589.40;2432.00;;;;;;4863097;29;20116;-74
2023/06/23 02:33:08;;;;;;;31.25;21.60;;;589.30;2432.00;;;;;;4834733;29;20033;-72
2023/06/23 02:35:34;;;;;;;33.08;20.13;;;589.30;2432.00;;;;;;4862800;29;20032;-73
2023/06/23 02:38:09;;;;;;;39.78;20.20;;;589.20;2432.00;;;;;;4862608;29;20029;-74
2023/06/23 02:40:37;;;;;;;35.03;20.13;;;589.20;2432.00;;;;;;4862628;29;20112;-73
2023/06/23 02:43:17;;;;;;;36.08;20.42;;;589.30;2432.00;;;;;;4862309;29;20037;-73
2023/06/23 02:45:49;;;;;;;33.20;20.13;;;589.30;2432.00;;;;;;4862557;29;20021;-73
2023/06/23 02:48:19;;;;;;;32.42;19.77;;;589.20;2432.00;;;;;;4846052;29;20057;-74
2023/06/23 02:50:45;;;;;;;32.97;18.95;;;589.20;2432.00;;;;;;4845753;29;20021;-73
2023/06/23 02:53:17;;;;;;;33.40;20.05;;;589.00;2432.00;;;;;;4862382;29;20124;-72
2023/06/23 02:55:46;;;;;;;30.50;19.25;;;589.20;2432.00;;;;;;4862431;29;20026;-72
2023/06/23 02:58:15;;;;;;;33.88;20.40;;;589.00;2432.00;;;;;;4845755;29;20036;-74
2023/06/23 03:00:43;;;;;;;31.27;19.52;;;589.00;2432.00;;;;;;4850500;29;20541;-74
2023/06/23 03:03:14;;;;;;;31.88;19.45;;;588.90;2432.00;;;;;;4862067;29;20034;-76
2023/06/23 03:05:40;;;;;;;32.75;19.83;;;588.90;2432.00;;;;;;4862171;29;20030;-72
2023/06/23 03:08:06;;;;;;;27.90;18.15;;;588.90;2432.00;;;;;;4845537;29;20037;-73
2023/06/23 03:10:33;;;;;;;33.35;19.90;;;588.90;2432.00;;;;;;4862226;29;20056;-79
2023/06/23 03:13:02;;;;;;;34.70;20.70;;;588.80;2432.00;;;;;;4861702;29;20538;-72
2023/06/23 03:15:29;;;;;;;35.92;18.58;;;588.80;2432.00;;;;;;4862147;29;20477;-76
2023/06/23 03:18:07;;;;;;;32.45;19.15;;;564.10;2432.00;;;;;;4862079;29;20421;-77
2023/06/23 03:20:46;;;;;;;26.27;18.33;;;564.10;2432.00;;;;;;4861721;29;20033;-77
2023/06/23 03:23:14;;;;;;;27.70;17.02;;;564.10;2432.00;;;;;;4861953;29;20041;-74
2023/06/23 03:25:41;;;;;;;25.67;18.40;;;564.10;2432.00;;;;;;4861972;29;20029;-74
2023/06/23 03:28:10;;;;;;;29.98;17.25;;;564.10;2432.00;;;;;;4861780;29;20033;-73
2023/06/23 03:30:48;;;;;;;27.13;16.20;;;564.10;2432.00;;;;;;4861707;29;20058;-73
2023/06/23 03:33:22;;;;;;;27.45;17.85;;;564.10;2432.00;;;;;;4845205;29;20033;-72
2023/06/23 03:35:49;;;;;;;31.92;17.60;;;588.80;2432.00;;;;;;4861519;29;20032;-74
2023/06/23 03:38:18;;;;;;;24.60;18.13;;;588.80;2432.00;;;;;;4861813;29;20073;-74
2023/06/23 03:41:01;;;;;;;28.77;17.48;;;588.90;2432.00;;;;;;4861665;29;20029;-73
2023/06/23 03:43:57;;;;;;;30.73;17.05;;;588.90;2432.00;;;;;;4861412;29;20052;-72
2023/06/23 03:46:38;;;;;;;21.83;14.85;;;589.00;2432.00;;;;;;4852814;29;20480;-73
2023/06/23 03:49:05;;;;;;;24.35;16.92;;;589.20;2432.00;;;;;;4861465;29;20037;-73
2023/06/23 03:51:34;;;;;;;25.58;17.77;;;589.20;2432.00;;;;;;4861371;29;20057;-73
2023/06/23 03:54:02;;;;;;;27.67;15.20;;;589.20;2432.00;;;;;;4861212;29;20030;-73
2023/06/23 03:56:30;;;;;;;26.67;17.15;;;589.30;2432.00;;;;;;4861645;29;20471;-74
2023/06/23 03:58:59;;;;;;;24.60;16.92;;;589.30;2432.00;;;;;;4861311;29;20037;-73
2023/06/23 04:01:26;;;;;;;27.15;16.80;;;589.40;2432.00;;;;;;4844940;29;20033;-74
2023/06/23 04:03:54;;;;;;;27.73;16.85;;;589.50;2432.00;;;;;;4856465;29;20128;-74
2023/06/23 04:06:22;;;;;;;30.67;17.40;;;589.50;2432.00;;;;;;4844523;29;20095;-73
2023/06/23 04:08:49;;;;;;;26.38;17.40;;;589.50;2432.00;;;;;;4861355;29;20021;-73
2023/06/23 04:11:16;;;;;;;26.60;17.05;;;589.50;2432.00;;;;;;4861340;29;20124;-72
2023/06/23 04:13:42;;;;;;;32.22;18.65;;;589.50;2432.00;;;;;;4860665;29;20121;-72
2023/06/23 04:16:10;;;;;;;27.25;17.95;;;589.60;2432.00;;;;;;4861099;29;20051;-73
2023/06/23 04:18:38;;;;;;;24.50;19.42;;;589.60;2432.00;;;;;;4861215;29;20029;-75
2023/06/23 04:21:05;;;;;;;38.97;21.88;;;589.70;2432.00;;;;;;4873167;29;20022;-72
2023/06/23 04:23:34;;;;;;;21.90;17.80;;;614.40;2432.00;;;;;;4861194;29;20112;-73
2023/06/23 04:26:01;;;;;;;24.02;17.33;;;614.40;2432.00;;;;;;4854525;29;20040;-72
2023/06/23 04:28:28;;;;;;;29.15;17.90;;;614.50;2432.00;;;;;;4848522;29;20050;-71
2023/06/23 04:30:58;;;;;;;21.73;16.95;;;614.60;2432.00;;;;;;4852841;29;20034;-72
2023/06/23 04:33:23;;;;;;;30.90;17.70;;;614.60;2432.00;;;;;;4849591;29;20488;-73
2023/06/23 04:35:52;;;;;;;26.88;18.83;;;614.70;2432.00;;;;;;4831930;29;20036;-72
2023/06/23 04:38:22;;;;;;;22.38;17.55;;;614.70;2432.00;;;;;;4851995;29;20029;-73
2023/06/23 04:40:53;;;;;;;28.55;17.23;;;614.90;2432.00;;;;;;4851625;29;20058;-73
2023/06/23 04:43:26;;;;;;;22.70;16.63;;;614.90;2432.00;;;;;;4848545;29;20045;-71
2023/06/23 04:45:57;;;;;;;26.10;18.95;;;615.00;2432.00;;;;;;4847939;29;20034;-72
2023/06/23 04:48:26;;;;;;;22.48;17.70;;;615.00;2432.00;;;;;;4845426;29;20073;-72
2023/06/23 04:50:55;;;;;;;22.92;17.42;;;615.10;2432.00;;;;;;4832327;29;20033;-72
2023/06/23 04:53:27;;;;;;;24.92;18.02;;;615.10;2432.00;;;;;;4853779;29;20397;-73
2023/06/23 04:55:57;;;;;;;21.27;15.88;;;615.20;2432.00;;;;;;4848034;29;20106;-73
2023/06/23 04:58:25;;;;;;;21.67;16.25;;;615.30;2432.00;;;;;;4845452;29;20033;-75
2023/06/23 05:00:51;;;;;;;19.10;15.30;;;640.00;2432.00;;;;;;4832187;29;20037;-74
2023/06/23 05:03:20;;;;;;;21.50;16.00;;;640.00;2432.00;;;;;;4850967;29;21207;-73
2023/06/23 05:05:51;;;;;;;22.63;15.70;;;640.10;2432.00;;;;;;4848663;29;20495;-74
2023/06/23 05:08:17;;;;;;;18.05;14.07;;;640.20;2432.00;;;;;;4852310;29;20018;-76
2023/06/23 05:10:46;;;;;;;19.45;15.77;;;640.40;2432.00;;;;;;4851854;29;20032;-77
2023/06/23 05:13:14;;;;;;;21.90;15.02;;;640.30;2432.00;;;;;;4843095;29;20073;-73
2023/06/23 05:15:40;;;;;;;20.20;15.38;;;640.40;2432.00;;;;;;4848096;29;20105;-78
2023/06/23 05:18:08;;;;;;;18.20;13.70;;;640.50;2432.00;;;;;;4847083;29;20063;-71
2023/06/23 05:20:38;;;;;;;23.42;14.23;;;640.60;2432.00;;;;;;4853772;29;20040;-71
2023/06/23 05:23:05;;;;;;;18.70;13.27;;;640.70;2432.00;;;;;;4853827;29;20418;-72
2023/06/23 05:25:32;;;;;;;20.42;14.30;;;640.70;2432.00;;;;;;4850692;29;20076;-73
2023/06/23 05:28:01;;;;;;;19.33;13.48;;;665.60;2432.00;;;;;;4857915;29;20026;-74
2023/06/23 05:30:29;;;;;;;18.48;12.07;;;665.60;2432.00;;;;;;4853631;29;20485;-72
2023/06/23 05:32:58;;;;;;;18.25;13.00;;;665.70;2432.00;;;;;;4847453;29;20556;-74
2023/06/23 05:35:25;;;;;;;18.30;12.38;;;665.70;2432.00;;;;;;4849906;29;20030;-73
2023/06/23 05:37:52;;;;;;;17.60;12.25;;;665.90;2432.00;;;;;;4848507;29;20033;-72
2023/06/23 05:40:17;;;;;;;17.75;12.43;;;665.90;2432.00;;;;;;4847927;29;20026;-73
2023/06/23 05:42:44;;;;;;;20.65;12.45;;;666.00;2432.00;;;;;;4850475;29;20533;-73
2023/06/23 05:45:11;;;;;;;16.15;12.55;;;666.20;2432.00;;;;;;4852264;29;20393;-73
2023/06/23 05:48:06;;;;;;;23.50;12.77;;;666.20;2432.00;;;;;;4849164;29;20029;-73
2023/06/23 05:50:34;;;;;;;18.02;13.07;;;666.30;2432.00;;;;;;4853392;29;20446;-73
2023/06/23 05:53:21;;;;;;;20.55;12.73;;;666.30;2432.00;;;;;;4849919;29;20052;-77
2023/06/23 05:55:54;;;;;;;21.67;13.75;;;666.30;2432.00;;;;;;4837935;29;20068;-72
2023/06/23 05:58:25;;;;;;;19.98;14.23;;;666.40;2432.00;;;;;;4857689;29;20022;-73
2023/06/23 06:00:56;;;;;;;17.90;13.07;;;666.50;2432.00;;;;;;4855139;29;20058;-73
2023/06/23 06:03:29;;;;;;;17.05;13.93;;;691.30;2432.00;;;;;;4852699;29;20078;-74
2023/06/23 06:05:58;;;;;;;21.58;14.07;;;691.30;2432.00;;;;;;4849311;29;20098;-74
2023/06/23 06:08:25;;;;;;;17.23;13.40;;;691.40;2432.00;;;;;;4848360;29;20546;-74
2023/06/23 06:10:52;;;;;;;19.08;13.88;;;691.50;2432.00;;;;;;4854076;29;20041;-74
2023/06/23 06:13:19;;;;;;;19.30;13.98;;;691.50;2432.00;;;;;;4847368;29;20106;-79
2023/06/23 06:15:46;;;;;;;18.60;13.75;;;691.60;2432.00;;;;;;4854720;29;20157;-73
2023/06/23 06:18:15;;;;;;;19.90;14.23;;;691.70;2432.00;;;;;;4853100;29;20392;-77
2023/06/23 06:20:44;;;;;;;20.52;13.38;;;691.70;2432.00;;;;;;4854452;29;20463;-74
2023/06/23 06:23:11;;;;;;;20.98;13.98;;;691.80;2432.00;;;;;;4852503;29;20085;-75
2023/06/23 06:25:38;;;;;;;25.95;15.20;;;691.80;2432.00;;;;;;4862484;29;20116;-82
2023/06/23 06:28:10;;;;;;;20.58;14.40;;;691.90;2432.00;;;;;;4849914;29;20037;-75
2023/06/23 06:30:37;;;;;;;21.58;12.98;;;692.10;2432.00;;;;;;4848030;29;20026;-73
2023/06/23 06:33:04;;;;;;;22.52;13.82;;;716.80;2432.00;;;;;;4834088;29;20041;-89
2023/06/23 06:35:32;;;;;;;17.27;13.88;;;716.80;2432.00;;;;;;4856185;29;20029;-75
2023/06/23 06:37:59;;;;;;;20.52;13.05;;;716.80;2432.00;;;;;;4850488;29;20061;-72
2023/06/23 06:40:26;;;;;;;16.92;11.65;;;717.00;2432.00;;;;;;4849565;29;20030;-72
2023/06/23 06:42:52;;;;;;;14.63;11.93;;;717.10;2432.00;;;;;;4852077;29;20037;-72
2023/06/23 06:45:18;;;;;;;18.27;11.73;;;717.20;2432.00;;;;;;4850484;29;20056;-72
2023/06/23 06:47:46;;;;;;;17.33;11.90;;;717.20;2432.00;;;;;;4848079;29;20111;-72
2023/06/23 06:50:14;;;;;;;15.45;11.52;;;717.20;2432.00;;;;;;4850546;29;20034;-72
2023/06/23 06:52:41;;;;;;;20.25;12.02;;;717.20;2432.00;;;;;;4854566;29;20472;-75
2023/06/23 06:55:14;;;;;;;18.77;11.38;;;717.30;2432.00;;;;;;4851443;29;20090;-75
2023/06/23 06:57:40;;;;;;;19.27;11.40;;;717.30;2432.00;;;;;;4852397;29;20024;-72
2023/06/23 07:00:06;;;;;;;20.65;11.50;;;717.40;2432.00;;;;;;4846937;29;20400;-73
2023/06/23 07:02:33;;;;;;;16.67;11.80;;;717.50;2432.00;;;;;;4851723;29;20106;-71
2023/06/23 07:05:00;;;;;;;14.98;10.52;;;717.70;2432.00;;;;;;4850188;29;20122;-74
2023/06/23 07:07:26;;;;;;;16.55;11.10;;;717.70;2432.00;;;;;;4849982;29;20503;-73
2023/06/23 07:09:52;;;;;;;14.63;11.50;;;742.40;2432.00;;;;;;4849308;29;20108;-73
2023/06/23 07:12:18;;;;;;;12.48;9.52;;;742.40;2432.00;;;;;;4850874;29;20030;-77
2023/06/23 07:14:43;;;;;;;16.83;10.43;;;742.50;2432.00;;;;;;4854105;29;20046;-82
2023/06/23 07:17:09;;;;;;;19.25;11.52;;;742.50;2432.00;;;;;;4849486;29;20024;-74
2023/06/23 07:19:37;;;;;;;16.42;10.32;;;742.50;2432.00;;;;;;4852356;29;20107;-73
2023/06/23 07:22:03;;;;;;;22.23;11.23;;;742.70;2432.00;;;;;;4850536;29;20100;-79
2023/06/23 07:24:29;;;;;;;15.65;10.20;;;742.80;2432.00;;;;;;4853026;29;20033;-77
2023/06/23 07:26:55;;;;;;;20.20;9.80;;;742.90;2432.00;;;;;;4854754;29;20396;-74
2023/06/23 07:29:20;;;;;;;16.95;10.02;;;742.90;2432.00;;;;;;4850590;29;20388;-73
2023/06/23 07:31:46;;;;;;;12.73;9.40;;;743.10;2432.00;;;;;;4846106;29;20427;-72
2023/06/23 07:34:11;;;;;;;19.02;9.40;;;743.00;2432.00;;;;;;4838168;29;20069;-80
2023/06/23 07:36:37;;;;;;;15.82;9.98;;;743.20;2432.00;;;;;;4848178;29;20037;-72
2023/06/23 07:39:03;;;;;;;12.82;9.52;;;743.20;2432.00;;;;;;4838522;29;20041;-72
2023/06/23 07:41:28;;;;;;;13.57;9.63;;;743.30;2432.00;;;;;;4860260;29;20052;-74
2023/06/23 07:43:54;;;;;;;14.85;8.75;;;768.10;2432.00;;;;;;4834422;29;20102;-73
2023/06/23 07:46:20;;;;;;;11.90;9.18;;;768.20;2432.00;;;;;;4849755;29;20033;-73
2023/06/23 07:48:46;;;;;;;10.32;8.65;;;768.40;2432.00;;;;;;4847072;29;20045;-73
2023/06/23 07:51:11;;;;;;;11.32;9.50;;;768.40;2432.00;;;;;;4853001;29;20029;-73
2023/06/23 07:53:37;;;;;;;11.95;9.30;;;768.40;2432.00;;;;;;4849494;29;20026;-74
2023/06/23 07:56:03;;;;;;;13.90;9.25;;;768.40;2432.00;;;;;;4851534;29;20063;-78
2023/06/23 07:58:28;;;;;;;16.13;10.07;;;768.40;2432.00;;;;;;4853352;29;20100;-73
2023/06/23 08:00:54;;;;;;;13.07;9.88;;;768.60;2432.00;;;;;;4831194;29;20033;-79
2023/06/23 08:03:20;;;;;;;11.88;8.98;;;768.80;2432.00;;;;;;4852769;29;20400;-74
2023/06/23 08:05:46;;;;;;;13.25;8.82;;;768.80;2304.00;;;;;;4850367;29;20508;-75
2023/06/23 08:08:11;;;;;;;13.30;8.95;;;768.90;2355.20;;;;;;4846308;29;20497;-75
2023/06/23 08:10:37;;;;;;;11.52;8.93;;;768.90;2380.80;;;;;;4856762;29;20029;-72
2023/06/23 08:13:03;;;;;;;12.20;9.38;;;793.60;2329.60;;;;;;4851660;29;20096;-71
2023/06/23 08:15:28;;;;;;;13.48;8.77;;;793.60;2329.60;;;;;;4850765;29;20064;-75
2023/06/23 08:17:54;;;;;;;13.60;9.10;;;793.70;2329.60;;;;;;4835281;29;20037;-74
2023/06/23 08:20:21;;;;;;;13.57;8.18;;;793.70;2227.20;;;;;;4847296;29;20091;-72
2023/06/23 08:22:47;;;;;;;17.58;9.25;;;793.70;2201.60;;;;;;4847757;29;20049;-73
2023/06/23 08:25:12;;;;;;;14.02;9.10;;;793.80;2278.40;;;;;;4850873;29;20485;-73
2023/06/23 08:27:38;;;;;;;10.63;8.60;;;793.80;2278.40;;;;;;4845718;29;20038;-74
2023/06/23 08:30:05;;;;;;;13.38;8.82;;;794.00;2355.20;;;;;;4850028;29;20469;-74
2023/06/23 08:32:31;;;;;;;12.60;9.27;;;794.00;2201.60;;;;;;4857030;29;20025;-73
2023/06/23 08:34:56;;;;;;;18.05;9.70;;;794.00;2252.80;;;;;;4827425;29;20049;-74
2023/06/23 08:37:22;;;;;;;12.73;8.50;;;794.00;2304.00;;;;;;4852321;29;20082;-71
2023/06/23 08:39:48;;;;;;;11.95;9.70;;;794.00;2304.00;;;;;;4852896;29;20025;-73
2023/06/23 08:42:14;;;;;;;15.80;8.88;;;794.00;2252.80;;;;;;4850126;29;20120;-73
2023/06/23 08:44:44;;;;;;;16.95;9.52;;;794.20;2329.60;;;;;;4846743;29;20497;-74
2023/06/23 08:47:15;;;;;;;16.77;8.70;;;794.30;2329.60;;;;;;4852625;29;20029;-83
2023/06/23 08:49:42;;;;;;;16.10;9.63;;;794.40;2227.20;;;;;;4844792;29;20025;-74
2023/06/23 08:52:10;;;;;;;15.43;9.63;;;794.30;2252.80;;;;;;4852041;29;20035;-72
2023/06/23 08:54:36;;;;;;;11.98;9.13;;;794.20;2252.80;;;;;;4839622;29;20057;-72
2023/06/23 08:57:03;;;;;;;11.73;8.73;;;794.40;2355.20;;;;;;4852899;29;20108;-73
2023/06/23 08:59:30;;;;;;;12.95;8.75;;;794.40;2150.40;;;;;;4846009;29;20025;-79
2023/06/23 09:01:56;;;;;;;11.82;8.73;;;794.40;2124.80;;;;;;4844786;29;20118;-79
2023/06/23 09:04:21;;;;;;;14.10;9.43;;;794.40;2099.20;;;;;;4851105;29;20038;-74
2023/06/23 09:06:47;;;;;;;27.70;10.43;;;794.50;2150.40;;;;;;4846284;29;20038;-73
2023/06/23 09:09:13;;;;;;;10.70;8.50;;;794.50;2124.80;;;;;;4835701;29;20437;-82
2023/06/23 09:11:40;;;;;;;11.55;8.68;;;819.30;2176.00;;;;;;4851203;29;20025;-75
2023/06/23 09:14:06;;;;;;;14.77;9.40;;;819.30;2201.60;;;;;;4846958;29;20057;-76
2023/06/23 09:16:32;;;;;;;19.92;10.90;;;819.30;2304.00;;;;;;4855262;29;20033;-74
2023/06/23 09:19:00;;;;;;;13.77;9.23;;;819.30;2201.60;;;;;;4849740;29;20049;-80
2023/06/23 09:21:26;;;;;;;23.50;10.32;;;819.60;2227.20;;;;;;4853295;29;20040;-77
2023/06/23 09:24:03;;;;;;;12.40;8.45;;;819.50;2099.20;;;;;;4847591;29;20042;-74
2023/06/23 09:26:29;;;;;;;16.10;8.75;;;819.40;2048.00;;;;;;4839463;29;20040;-72
2023/06/23 09:29:23;;;;;;;11.98;8.25;;;819.60;2073.60;;;;;;4853753;29;20030;-72
2023/06/23 09:31:51;;;;;;;15.18;8.57;;;819.80;2201.60;;;;;;4852421;29;20029;-75
2023/06/23 09:34:31;;;;;;;9.68;8.40;;;819.60;2048.00;;;;;;4857257;29;20044;-75
2023/06/23 09:37:06;;;;;;;11.02;8.25;;;819.80;2048.00;;;;;;4853190;29;20026;-72
2023/06/23 09:39:43;;;;;;;15.80;9.30;;;819.80;2073.60;;;;;;4850849;29;20091;-73
2023/06/23 09:42:13;;;;;;;18.98;9.90;;;819.80;2099.20;;;;;;4849437;29;20496;-75
2023/06/23 09:44:40;;;;;;;20.98;9.85;;;819.90;2099.20;;;;;;4853504;29;20037;-76
2023/06/23 09:47:06;;;;;;;13.65;9.13;;;820.10;2124.80;;;;;;4855314;29;20085;-77
2023/06/23 09:49:39;;;;;;;13.05;8.48;;;820.10;1945.60;;;;;;4850136;29;20025;-74
2023/06/23 09:52:06;;;;;;;12.27;8.85;;;820.10;1920.00;;;;;;4855828;29;20025;-78
2023/06/23 09:54:42;;;;;;;18.17;8.80;;;845.10;1971.20;;;;;;4854985;29;20480;-75
2023/06/23 09:57:12;;;;;;;14.57;9.90;;;845.10;1945.60;;;;;;4861628;29;20491;-73
2023/06/23 09:59:39;;;;;;;13.45;9.38;;;845.30;2048.00;;;;;;4853881;29;20030;-74
2023/06/23 10:02:18;;;;;;;19.30;9.55;;;845.40;2073.60;;;;;;4846698;29;20061;-77
2023/06/23 10:04:45;;;;;;;13.75;8.73;;;845.40;2150.40;;;;;;4852877;29;20044;-74
2023/06/23 10:07:21;;;;;;;16.70;9.68;;;845.50;2073.60;;;;;;4850660;29;20022;-73
2023/06/23 10:09:53;;;;;;;13.30;10.52;;;845.40;2022.40;;;;;;4856624;29;20041;-78
2023/06/23 10:12:25;;;;;;;13.38;9.43;;;845.50;1996.80;;;;;;4855343;29;20082;-73
2023/06/23 10:14:51;;;;;;;15.23;9.27;;;845.60;1945.60;;;;;;4847619;29;20171;-75
2023/06/23 10:17:18;;;;;;;19.05;9.25;;;870.40;2022.40;;;;;;4853037;29;20036;-81
2023/06/23 10:19:51;;;;;;;14.52;9.18;;;870.40;1945.60;;;;;;4849729;29;20047;-77
2023/06/23 10:22:19;;;;;;;11.65;9.27;;;870.50;2022.40;;;;;;4859927;29;20081;-74
2023/06/23 10:24:47;;;;;;;14.85;8.98;;;845.70;1945.60;;;;;;4857287;29;20041;-74
2023/06/23 10:27:23;;;;;;;13.48;8.60;;;845.70;1945.60;;;;;;4847212;29;20074;-72
2023/06/23 10:29:54;;;;;;;17.70;8.70;;;870.60;2022.40;;;;;;4848030;29;20092;-77
2023/06/23 10:32:30;;;;;;;19.50;9.43;;;870.50;1843.20;;;;;;4851656;29;20017;-75
2023/06/23 10:34:57;;;;;;;15.23;9.82;;;870.60;1868.80;;;;;;4853773;29;20128;-77
2023/06/23 10:37:26;;;;;;;13.15;9.02;;;870.70;1945.60;;;;;;4848822;29;20045;-73
2023/06/23 10:39:57;;;;;;;14.10;8.48;;;870.60;1920.00;;;;;;4849777;29;20094;-73
2023/06/23 10:42:23;;;;;;;12.43;8.55;;;870.80;1868.80;;;;;;4846954;29;20074;-82
2023/06/23 10:44:50;;;;;;;13.07;8.07;;;870.80;1817.60;;;;;;4849347;29;20046;-74
2023/06/23 10:47:17;;;;;;;14.27;8.48;;;870.80;1740.80;;;;;;4854551;29;20025;-74
2023/06/23 10:49:44;;;;;;;12.15;8.75;;;870.90;1792.00;;;;;;4847082;29;20040;-73
2023/06/23 10:52:11;;;;;;;14.15;9.88;;;870.90;1817.60;;;;;;4854424;29;20493;-77
2023/06/23 10:54:36;;;;;;;18.52;9.10;;;870.80;1715.20;;;;;;4853836;29;20053;-75
2023/06/23 10:57:11;;;;;;;13.02;8.38;;;870.90;1740.80;;;;;;4852045;29;20087;-74
2023/06/23 10:59:44;;;;;;;13.13;8.40;;;870.90;1664.00;;;;;;4852760;29;20037;-73
2023/06/23 11:02:17;;;;;;;15.60;8.30;;;871.10;1689.60;;;;;;4846676;29;20025;-73
2023/06/23 11:04:58;;;;;;;16.30;8.93;;;871.10;1715.20;;;;;;4854446;29;20029;-73
2023/06/23 11:07:25;;;;;;;15.48;8.13;;;871.10;1715.20;;;;;;4853500;29;20025;-81
2023/06/23 11:10:01;;;;;;;14.73;8.55;;;871.10;1715.20;;;;;;4849985;29;20121;-76
2023/06/23 11:12:33;;;;;;;24.25;8.70;;;871.30;1843.20;;;;;;4853828;29;20025;-75
2023/06/23 11:15:20;;;;;;;15.35;8.07;;;871.30;1638.40;;;;;;4846615;29;20096;-74
2023/06/23 11:18:00;;;;;;;20.02;9.50;;;871.20;1536.00;;;;;;4847039;29;20117;-73
2023/06/23 11:20:44;;;;;;;15.80;9.25;;;871.30;1561.60;;;;;;4854046;29;20105;-74
2023/06/23 11:23:12;;;;;;;16.13;8.93;;;896.10;1715.20;;;;;;4847115;29;20492;-73
2023/06/23 11:25:45;;;;;;;14.48;8.07;;;896.40;1766.40;;;;;;4849270;29;20030;-79
2023/06/23 11:28:38;;;;;;;10.23;7.22;;;896.40;1638.40;;;;;;4848926;29;20121;-73
2023/06/23 11:31:18;;;;;;;12.18;7.55;;;896.30;1587.20;;;;;;4854220;29;20104;-74
2023/06/23 11:33:58;;;;;;;9.52;7.50;;;896.50;1561.60;;;;;;4855214;29;20051;-74
2023/06/23 11:36:26;;;;;;;15.30;8.23;;;896.80;1433.60;;;;;;4852002;29;20032;-74
2023/06/23 11:38:53;;;;;;;12.38;7.63;;;896.90;1561.60;;;;;;4853561;29;20120;-75
2023/06/23 11:41:29;;;;;;;17.35;8.43;;;896.50;1510.40;;;;;;4847017;29;20108;-73
2023/06/23 11:44:02;;;;;;;17.58;8.75;;;896.40;1510.40;;;;;;4854219;29;20129;-73
2023/06/23 11:46:32;;;;;;;14.27;7.85;;;896.60;1587.20;;;;;;4854124;29;20099;-77
2023/06/23 11:48:57;;;;;;;15.38;8.15;;;896.50;1536.00;;;;;;4848224;29;20443;-74
2023/06/23 11:51:23;;;;;;;12.05;7.43;;;896.50;1536.00;;;;;;4855334;29;20030;-73
2023/06/23 11:53:52;;;;;;;17.42;8.07;;;896.50;1510.40;;;;;;4849456;29;20025;-75
2023/06/23 11:56:19;;;;;;;15.60;8.32;;;896.90;1561.60;;;;;;4853687;29;20037;-75
2023/06/23 11:58:55;;;;;;;13.43;8.00;;;896.80;1612.80;;;;;;4849432;29;20026;-74
2023/06/23 12:01:21;;;;;;;17.95;9.20;;;896.60;1510.40;;;;;;4843542;29;20493;-78
2023/06/23 12:03:48;;;;;;;13.18;7.95;;;896.60;1510.40;;;;;;4853426;29;20041;-74
2023/06/23 12:06:17;;;;;;;16.67;8.45;;;896.60;1484.80;;;;;;4849334;29;20553;-73
2023/06/23 12:08:43;;;;;;;15.07;8.02;;;896.90;1510.40;;;;;;4851727;29;20115;-75
2023/06/23 12:11:09;;;;;;;14.25;7.95;;;896.50;1536.00;;;;;;4849312;29;20057;-74
2023/06/23 12:13:38;;;;;;;13.20;8.30;;;896.90;1561.60;;;;;;4852408;29;20088;-73
2023/06/23 12:16:06;;;;;;;14.02;7.15;;;896.90;1536.00;;;;;;4855267;29;20117;-75
2023/06/23 12:18:32;;;;;;;13.82;7.97;;;896.90;1459.20;;;;;;4845960;29;20515;-76